Terminal Aerodrome Forecast
Issued by NWS

Home | Current Version | Previous Version | Text Only | Print | Product List | Glossary On
Versions: 1 2 3 4 5 6 7 8 9 10 11 12 13 14 15 16 17
349
FTUS43 KAPX 211720
TAFMBL
TAF
KMBL 211720Z 2118/2218 29017G26KT P6SM SCT030 OVC040
     FM212000 31015G25KT P6SM VCSH SCT030 OVC040
     FM220900 32013G22KT P6SM VCSH BKN035
     FM221300 31009KT P6SM BKN035=

USA.gov is the U.S. government's official web portal to all federal, state and local government web resources and services.